sensor_id;sensor_type;location;lat;lon;timestamp;P1;durP1;ratioP1;P2;durP2;ratioP2
26261;SDS011;13988;52.446;13.280;2023-12-14T00:00:25;11.73;;;6.07;;
26261;SDS011;13988;52.446;13.280;2023-12-14T00:02:51;10.75;;;4.68;;
26261;SDS011;13988;52.446;13.280;2023-12-14T00:05:16;9.90;;;5.60;;
26261;SDS011;13988;52.446;13.280;2023-12-14T00:07:42;12.75;;;5.55;;
26261;SDS011;13988;52.446;13.280;2023-12-14T00:10:07;12.23;;;5.45;;
26261;SDS011;13988;52.446;13.280;2023-12-14T00:12:33;10.30;;;5.13;;
26261;SDS011;13988;52.446;13.280;2023-12-14T00:14:59;7.35;;;4.50;;
26261;SDS011;13988;52.446;13.280;2023-12-14T00:17:24;15.80;;;6.68;;
26261;SDS011;13988;52.446;13.280;2023-12-14T00:19:50;8.98;;;4.93;;
26261;SDS011;13988;52.446;13.280;2023-12-14T00:22:16;10.50;;;5.63;;
26261;SDS011;13988;52.446;13.280;2023-12-14T00:24:41;13.73;;;6.80;;
26261;SDS011;13988;52.446;13.280;2023-12-14T00:27:07;9.57;;;5.13;;
26261;SDS011;13988;52.446;13.280;2023-12-14T00:29:33;9.80;;;5.20;;
26261;SDS011;13988;52.446;13.280;2023-12-14T00:31:58;11.50;;;5.10;;
26261;SDS011;13988;52.446;13.280;2023-12-14T00:34:24;11.57;;;5.65;;
26261;SDS011;13988;52.446;13.280;2023-12-14T00:36:50;9.50;;;5.53;;
26261;SDS011;13988;52.446;13.280;2023-12-14T00:39:15;12.65;;;6.30;;
26261;SDS011;13988;52.446;13.280;2023-12-14T00:41:41;11.02;;;6.18;;
26261;SDS011;13988;52.446;13.280;2023-12-14T00:44:06;14.23;;;7.53;;
26261;SDS011;13988;52.446;13.280;2023-12-14T00:46:32;16.63;;;8.32;;
26261;SDS011;13988;52.446;13.280;2023-12-14T00:48:58;16.45;;;6.35;;
26261;SDS011;13988;52.446;13.280;2023-12-14T00:51:23;15.13;;;6.22;;
26261;SDS011;13988;52.446;13.280;2023-12-14T00:53:49;14.15;;;6.63;;
26261;SDS011;13988;52.446;13.280;2023-12-14T00:56:14;13.73;;;6.85;;
26261;SDS011;13988;52.446;13.280;2023-12-14T00:58:40;14.75;;;6.28;;
26261;SDS011;13988;52.446;13.280;2023-12-14T01:01:06;15.18;;;8.30;;
26261;SDS011;13988;52.446;13.280;2023-12-14T01:03:31;9.20;;;5.45;;
26261;SDS011;13988;52.446;13.280;2023-12-14T01:05:57;12.27;;;6.55;;
26261;SDS011;13988;52.446;13.280;2023-12-14T01:08:23;7.82;;;4.72;;
26261;SDS011;13988;52.446;13.280;2023-12-14T01:10:48;15.18;;;5.82;;
26261;SDS011;13988;52.446;13.280;2023-12-14T01:13:14;13.18;;;7.78;;
26261;SDS011;13988;52.446;13.280;2023-12-14T01:15:40;13.02;;;6.40;;
26261;SDS011;13988;52.446;13.280;2023-12-14T01:18:06;15.55;;;5.95;;
26261;SDS011;13988;52.446;13.280;2023-12-14T01:20:31;15.20;;;7.25;;
26261;SDS011;13988;52.446;13.280;2023-12-14T01:22:57;14.77;;;6.28;;
26261;SDS011;13988;52.446;13.280;2023-12-14T01:25:22;12.85;;;5.85;;
26261;SDS011;13988;52.446;13.280;2023-12-14T01:27:48;10.07;;;6.32;;
26261;SDS011;13988;52.446;13.280;2023-12-14T01:30:14;10.32;;;6.15;;
26261;SDS011;13988;52.446;13.280;2023-12-14T01:32:39;12.90;;;6.95;;
26261;SDS011;13988;52.446;13.280;2023-12-14T01:35:05;16.00;;;6.45;;
26261;SDS011;13988;52.446;13.280;2023-12-14T01:37:31;12.45;;;6.68;;
26261;SDS011;13988;52.446;13.280;2023-12-14T01:39:56;17.45;;;5.65;;
26261;SDS011;13988;52.446;13.280;2023-12-14T01:42:22;8.43;;;5.55;;
26261;SDS011;13988;52.446;13.280;2023-12-14T01:44:47;9.73;;;5.47;;
26261;SDS011;13988;52.446;13.280;2023-12-14T01:47:13;15.07;;;7.18;;
26261;SDS011;13988;52.446;13.280;2023-12-14T01:49:39;11.90;;;5.47;;
26261;SDS011;13988;52.446;13.280;2023-12-14T01:52:06;9.52;;;4.50;;
26261;SDS011;13988;52.446;13.280;2023-12-14T01:54:32;8.15;;;5.07;;
26261;SDS011;13988;52.446;13.280;2023-12-14T01:56:58;3.20;;;2.78;;
26261;SDS011;13988;52.446;13.280;2023-12-14T01:59:24;10.10;;;5.72;;
26261;SDS011;13988;52.446;13.280;2023-12-14T02:01:53;8.38;;;4.82;;
26261;SDS011;13988;52.446;13.280;2023-12-14T02:04:22;9.20;;;4.03;;
26261;SDS011;13988;52.446;13.280;2023-12-14T02:06:48;7.88;;;4.57;;
26261;SDS011;13988;52.446;13.280;2023-12-14T02:09:14;8.00;;;4.18;;
26261;SDS011;13988;52.446;13.280;2023-12-14T02:11:40;11.13;;;4.63;;
26261;SDS011;13988;52.446;13.280;2023-12-14T02:14:06;10.32;;;4.68;;
26261;SDS011;13988;52.446;13.280;2023-12-14T02:16:33;8.27;;;4.47;;
26261;SDS011;13988;52.446;13.280;2023-12-14T02:18:59;4.60;;;3.80;;
26261;SDS011;13988;52.446;13.280;2023-12-14T02:21:24;6.75;;;4.78;;
26261;SDS011;13988;52.446;13.280;2023-12-14T02:23:50;9.35;;;4.85;;
26261;SDS011;13988;52.446;13.280;2023-12-14T02:26:16;7.75;;;5.20;;
26261;SDS011;13988;52.446;13.280;2023-12-14T02:28:41;6.32;;;4.22;;
26261;SDS011;13988;52.446;13.280;2023-12-14T02:31:07;11.27;;;4.45;;
26261;SDS011;13988;52.446;13.280;2023-12-14T02:33:33;8.10;;;3.42;;
26261;SDS011;13988;52.446;13.280;2023-12-14T02:35:59;9.88;;;3.05;;
26261;SDS011;13988;52.446;13.280;2023-12-14T02:38:25;5.05;;;3.53;;
26261;SDS011;13988;52.446;13.280;2023-12-14T02:40:50;5.57;;;4.32;;
26261;SDS011;13988;52.446;13.280;2023-12-14T02:43:17;11.20;;;4.82;;
26261;SDS011;13988;52.446;13.280;2023-12-14T02:45:44;10.02;;;4.03;;
26261;SDS011;13988;52.446;13.280;2023-12-14T02:48:10;7.53;;;4.85;;
26261;SDS011;13988;52.446;13.280;2023-12-14T02:50:35;6.03;;;3.08;;
26261;SDS011;13988;52.446;13.280;2023-12-14T02:53:01;13.57;;;5.38;;
26261;SDS011;13988;52.446;13.280;2023-12-14T02:55:27;10.15;;;5.30;;
26261;SDS011;13988;52.446;13.280;2023-12-14T02:57:53;9.40;;;4.70;;
26261;SDS011;13988;52.446;13.280;2023-12-14T03:00:19;8.98;;;5.05;;
26261;SDS011;13988;52.446;13.280;2023-12-14T03:02:44;8.80;;;5.60;;
26261;SDS011;13988;52.446;13.280;2023-12-14T03:05:10;7.22;;;4.95;;
26261;SDS011;13988;52.446;13.280;2023-12-14T03:07:36;10.75;;;4.43;;
26261;SDS011;13988;52.446;13.280;2023-12-14T03:10:02;6.93;;;4.97;;
26261;SDS011;13988;52.446;13.280;2023-12-14T03:12:28;10.63;;;5.78;;
26261;SDS011;13988;52.446;13.280;2023-12-14T03:14:54;8.68;;;5.00;;
26261;SDS011;13988;52.446;13.280;2023-12-14T03:17:20;6.72;;;4.53;;
26261;SDS011;13988;52.446;13.280;2023-12-14T03:19:46;9.20;;;5.13;;
26261;SDS011;13988;52.446;13.280;2023-12-14T03:22:11;11.30;;;6.57;;
26261;SDS011;13988;52.446;13.280;2023-12-14T03:24:37;13.15;;;5.45;;
26261;SDS011;13988;52.446;13.280;2023-12-14T03:27:03;8.15;;;3.53;;
26261;SDS011;13988;52.446;13.280;2023-12-14T03:29:29;12.43;;;5.07;;
26261;SDS011;13988;52.446;13.280;2023-12-14T03:31:56;14.02;;;5.18;;
26261;SDS011;13988;52.446;13.280;2023-12-14T03:34:21;7.70;;;5.20;;
26261;SDS011;13988;52.446;13.280;2023-12-14T03:36:47;9.70;;;5.90;;
26261;SDS011;13988;52.446;13.280;2023-12-14T03:39:13;12.40;;;5.47;;
26261;SDS011;13988;52.446;13.280;2023-12-14T03:41:39;8.48;;;5.25;;
26261;SDS011;13988;52.446;13.280;2023-12-14T03:44:04;15.63;;;5.97;;
26261;SDS011;13988;52.446;13.280;2023-12-14T03:46:31;11.65;;;6.30;;
26261;SDS011;13988;52.446;13.280;2023-12-14T03:48:56;8.98;;;5.72;;
26261;SDS011;13988;52.446;13.280;2023-12-14T03:51:22;11.07;;;5.72;;
26261;SDS011;13988;52.446;13.280;2023-12-14T03:53:48;7.35;;;5.47;;
26261;SDS011;13988;52.446;13.280;2023-12-14T03:56:13;14.23;;;6.03;;
26261;SDS011;13988;52.446;13.280;2023-12-14T03:58:39;9.00;;;4.68;;
26261;SDS011;13988;52.446;13.280;2023-12-14T04:01:04;9.27;;;4.85;;
26261;SDS011;13988;52.446;13.280;2023-12-14T04:03:30;12.77;;;6.07;;
26261;SDS011;13988;52.446;13.280;2023-12-14T04:05:57;12.10;;;6.65;;
26261;SDS011;13988;52.446;13.280;2023-12-14T04:08:22;26.05;;;5.78;;
26261;SDS011;13988;52.446;13.280;2023-12-14T04:10:48;11.27;;;6.45;;
26261;SDS011;13988;52.446;13.280;2023-12-14T04:13:13;9.60;;;5.97;;
26261;SDS011;13988;52.446;13.280;2023-12-14T04:15:39;11.02;;;5.03;;
26261;SDS011;13988;52.446;13.280;2023-12-14T04:18:06;8.32;;;4.88;;
26261;SDS011;13988;52.446;13.280;2023-12-14T04:20:33;15.32;;;6.20;;
26261;SDS011;13988;52.446;13.280;2023-12-14T04:22:59;9.55;;;6.07;;
26261;SDS011;13988;52.446;13.280;2023-12-14T04:25:24;12.48;;;5.43;;
26261;SDS011;13988;52.446;13.280;2023-12-14T04:27:50;7.90;;;4.45;;
26261;SDS011;13988;52.446;13.280;2023-12-14T04:30:16;9.90;;;5.20;;
26261;SDS011;13988;52.446;13.280;2023-12-14T04:32:41;11.00;;;5.32;;
26261;SDS011;13988;52.446;13.280;2023-12-14T04:35:07;10.93;;;5.28;;
26261;SDS011;13988;52.446;13.280;2023-12-14T04:37:33;9.98;;;5.80;;
26261;SDS011;13988;52.446;13.280;2023-12-14T04:39:59;11.93;;;4.72;;
26261;SDS011;13988;52.446;13.280;2023-12-14T04:42:25;8.32;;;4.25;;
26261;SDS011;13988;52.446;13.280;2023-12-14T04:44:51;8.68;;;4.28;;
26261;SDS011;13988;52.446;13.280;2023-12-14T04:47:16;8.15;;;4.15;;
26261;SDS011;13988;52.446;13.280;2023-12-14T04:49:42;4.88;;;3.08;;
26261;SDS011;13988;52.446;13.280;2023-12-14T04:52:08;12.32;;;5.10;;
26261;SDS011;13988;52.446;13.280;2023-12-14T04:54:33;10.45;;;5.05;;
26261;SDS011;13988;52.446;13.280;2023-12-14T04:57:02;9.82;;;4.38;;
26261;SDS011;13988;52.446;13.280;2023-12-14T04:59:28;10.38;;;3.63;;
26261;SDS011;13988;52.446;13.280;2023-12-14T05:01:54;8.57;;;4.13;;
26261;SDS011;13988;52.446;13.280;2023-12-14T05:04:20;10.77;;;4.72;;
26261;SDS011;13988;52.446;13.280;2023-12-14T05:06:46;10.73;;;5.05;;
26261;SDS011;13988;52.446;13.280;2023-12-14T05:09:11;14.13;;;4.72;;
26261;SDS011;13988;52.446;13.280;2023-12-14T05:11:39;8.48;;;5.07;;
26261;SDS011;13988;52.446;13.280;2023-12-14T05:14:04;9.05;;;4.25;;
26261;SDS011;13988;52.446;13.280;2023-12-14T05:16:33;10.35;;;4.97;;
26261;SDS011;13988;52.446;13.280;2023-12-14T05:18:59;8.63;;;4.70;;
26261;SDS011;13988;52.446;13.280;2023-12-14T05:21:24;7.60;;;4.05;;
26261;SDS011;13988;52.446;13.280;2023-12-14T05:23:50;9.10;;;4.72;;
26261;SDS011;13988;52.446;13.280;2023-12-14T05:26:16;14.32;;;5.72;;
26261;SDS011;13988;52.446;13.280;2023-12-14T05:28:41;7.07;;;4.20;;
26261;SDS011;13988;52.446;13.280;2023-12-14T05:31:07;5.22;;;3.72;;
26261;SDS011;13988;52.446;13.280;2023-12-14T05:33:36;10.32;;;6.18;;
26261;SDS011;13988;52.446;13.280;2023-12-14T05:36:02;6.88;;;3.88;;
26261;SDS011;13988;52.446;13.280;2023-12-14T05:38:30;9.18;;;5.05;;
26261;SDS011;13988;52.446;13.280;2023-12-14T05:40:56;9.65;;;5.22;;
26261;SDS011;13988;52.446;13.280;2023-12-14T05:43:22;11.70;;;5.35;;
26261;SDS011;13988;52.446;13.280;2023-12-14T05:45:47;15.45;;;4.95;;
26261;SDS011;13988;52.446;13.280;2023-12-14T05:48:13;9.93;;;5.10;;
26261;SDS011;13988;52.446;13.280;2023-12-14T05:50:39;7.90;;;4.18;;
26261;SDS011;13988;52.446;13.280;2023-12-14T05:53:05;13.10;;;4.50;;
26261;SDS011;13988;52.446;13.280;2023-12-14T05:55:30;7.80;;;4.22;;
26261;SDS011;13988;52.446;13.280;2023-12-14T05:57:56;8.18;;;4.13;;
26261;SDS011;13988;52.446;13.280;2023-12-14T06:00:22;11.65;;;5.00;;
26261;SDS011;13988;52.446;13.280;2023-12-14T06:02:47;9.60;;;5.38;;
26261;SDS011;13988;52.446;13.280;2023-12-14T06:05:13;7.00;;;4.45;;
26261;SDS011;13988;52.446;13.280;2023-12-14T06:07:39;5.68;;;3.83;;
26261;SDS011;13988;52.446;13.280;2023-12-14T06:10:05;6.35;;;4.10;;
26261;SDS011;13988;52.446;13.280;2023-12-14T06:12:31;5.90;;;4.13;;
26261;SDS011;13988;52.446;13.280;2023-12-14T06:14:57;10.70;;;5.18;;
26261;SDS011;13988;52.446;13.280;2023-12-14T06:17:22;6.78;;;4.80;;
26261;SDS011;13988;52.446;13.280;2023-12-14T06:19:48;9.52;;;4.38;;
26261;SDS011;13988;52.446;13.280;2023-12-14T06:22:13;6.70;;;3.67;;
26261;SDS011;13988;52.446;13.280;2023-12-14T06:24:39;9.90;;;5.10;;
26261;SDS011;13988;52.446;13.280;2023-12-14T06:27:05;9.77;;;4.85;;
26261;SDS011;13988;52.446;13.280;2023-12-14T06:29:31;8.88;;;4.40;;
26261;SDS011;13988;52.446;13.280;2023-12-14T06:31:57;6.95;;;4.28;;
26261;SDS011;13988;52.446;13.280;2023-12-14T06:34:22;7.20;;;4.25;;
26261;SDS011;13988;52.446;13.280;2023-12-14T06:36:48;6.95;;;4.22;;
26261;SDS011;13988;52.446;13.280;2023-12-14T06:39:13;6.45;;;3.65;;
26261;SDS011;13988;52.446;13.280;2023-12-14T06:41:39;7.90;;;3.92;;
26261;SDS011;13988;52.446;13.280;2023-12-14T06:44:05;6.97;;;4.90;;
26261;SDS011;13988;52.446;13.280;2023-12-14T06:46:34;8.30;;;4.15;;
26261;SDS011;13988;52.446;13.280;2023-12-14T06:48:59;5.32;;;3.90;;
26261;SDS011;13988;52.446;13.280;2023-12-14T06:51:25;5.13;;;3.28;;
26261;SDS011;13988;52.446;13.280;2023-12-14T06:53:51;7.57;;;4.20;;
26261;SDS011;13988;52.446;13.280;2023-12-14T06:56:16;4.60;;;3.40;;
26261;SDS011;13988;52.446;13.280;2023-12-14T06:58:43;6.45;;;3.88;;
26261;SDS011;13988;52.446;13.280;2023-12-14T07:01:13;7.72;;;5.45;;
26261;SDS011;13988;52.446;13.280;2023-12-14T07:03:43;7.72;;;4.65;;
26261;SDS011;13988;52.446;13.280;2023-12-14T07:06:13;7.53;;;4.07;;
26261;SDS011;13988;52.446;13.280;2023-12-14T07:08:39;4.97;;;3.38;;
26261;SDS011;13988;52.446;13.280;2023-12-14T07:11:06;7.88;;;4.75;;
26261;SDS011;13988;52.446;13.280;2023-12-14T07:13:32;7.88;;;4.38;;
26261;SDS011;13988;52.446;13.280;2023-12-14T07:15:58;6.53;;;3.97;;
26261;SDS011;13988;52.446;13.280;2023-12-14T07:18:24;5.20;;;3.78;;
26261;SDS011;13988;52.446;13.280;2023-12-14T07:20:50;5.10;;;3.63;;
26261;SDS011;13988;52.446;13.280;2023-12-14T07:23:15;8.80;;;4.18;;
26261;SDS011;13988;52.446;13.280;2023-12-14T07:25:41;6.25;;;4.32;;
26261;SDS011;13988;52.446;13.280;2023-12-14T07:28:07;6.25;;;4.05;;
26261;SDS011;13988;52.446;13.280;2023-12-14T07:30:32;6.20;;;4.10;;
26261;SDS011;13988;52.446;13.280;2023-12-14T07:32:58;8.57;;;4.25;;
26261;SDS011;13988;52.446;13.280;2023-12-14T07:35:23;8.25;;;3.92;;
26261;SDS011;13988;52.446;13.280;2023-12-14T07:37:49;6.22;;;3.88;;
26261;SDS011;13988;52.446;13.280;2023-12-14T07:40:15;8.77;;;4.65;;
26261;SDS011;13988;52.446;13.280;2023-12-14T07:42:41;6.57;;;3.40;;
26261;SDS011;13988;52.446;13.280;2023-12-14T07:45:07;6.57;;;3.63;;
26261;SDS011;13988;52.446;13.280;2023-12-14T07:47:34;9.80;;;4.50;;
26261;SDS011;13988;52.446;13.280;2023-12-14T07:50:00;4.43;;;3.13;;
26261;SDS011;13988;52.446;13.280;2023-12-14T07:52:26;6.82;;;3.63;;
26261;SDS011;13988;52.446;13.280;2023-12-14T07:54:51;6.25;;;3.88;;
26261;SDS011;13988;52.446;13.280;2023-12-14T07:57:17;7.60;;;4.63;;
26261;SDS011;13988;52.446;13.280;2023-12-14T07:59:42;8.13;;;4.40;;
26261;SDS011;13988;52.446;13.280;2023-12-14T08:02:08;10.35;;;4.28;;
26261;SDS011;13988;52.446;13.280;2023-12-14T08:04:34;7.20;;;4.50;;
26261;SDS011;13988;52.446;13.280;2023-12-14T08:06:59;8.70;;;4.35;;
26261;SDS011;13988;52.446;13.280;2023-12-14T08:09:25;7.05;;;4.40;;
26261;SDS011;13988;52.446;13.280;2023-12-14T08:11:51;8.98;;;4.88;;
26261;SDS011;13988;52.446;13.280;2023-12-14T08:14:17;7.93;;;4.38;;
26261;SDS011;13988;52.446;13.280;2023-12-14T08:16:43;11.60;;;5.13;;
26261;SDS011;13988;52.446;13.280;2023-12-14T08:19:08;7.70;;;4.80;;
26261;SDS011;13988;52.446;13.280;2023-12-14T08:21:34;12.85;;;5.22;;
26261;SDS011;13988;52.446;13.280;2023-12-14T08:23:59;9.63;;;5.28;;
26261;SDS011;13988;52.446;13.280;2023-12-14T08:26:25;11.48;;;5.75;;
26261;SDS011;13988;52.446;13.280;2023-12-14T08:28:51;12.60;;;5.78;;
26261;SDS011;13988;52.446;13.280;2023-12-14T08:31:16;9.52;;;5.45;;
26261;SDS011;13988;52.446;13.280;2023-12-14T08:33:42;8.93;;;5.43;;
26261;SDS011;13988;52.446;13.280;2023-12-14T08:36:08;11.77;;;6.13;;
26261;SDS011;13988;52.446;13.280;2023-12-14T08:38:33;7.40;;;5.38;;
26261;SDS011;13988;52.446;13.280;2023-12-14T08:40:59;13.43;;;5.70;;
26261;SDS011;13988;52.446;13.280;2023-12-14T08:43:25;9.52;;;5.95;;
26261;SDS011;13988;52.446;13.280;2023-12-14T08:45:51;11.45;;;5.65;;
26261;SDS011;13988;52.446;13.280;2023-12-14T08:48:17;15.77;;;6.22;;
26261;SDS011;13988;52.446;13.280;2023-12-14T08:50:43;14.60;;;6.60;;
26261;SDS011;13988;52.446;13.280;2023-12-14T08:53:09;10.32;;;6.07;;
26261;SDS011;13988;52.446;13.280;2023-12-14T08:55:34;14.43;;;6.88;;
26261;SDS011;13988;52.446;13.280;2023-12-14T08:58:00;12.13;;;6.13;;
26261;SDS011;13988;52.446;13.280;2023-12-14T09:00:25;13.10;;;6.18;;
26261;SDS011;13988;52.446;13.280;2023-12-14T09:02:51;9.50;;;5.30;;
26261;SDS011;13988;52.446;13.280;2023-12-14T09:05:18;13.90;;;7.13;;
26261;SDS011;13988;52.446;13.280;2023-12-14T09:07:45;11.57;;;6.88;;
26261;SDS011;13988;52.446;13.280;2023-12-14T09:10:11;14.05;;;7.88;;
26261;SDS011;13988;52.446;13.280;2023-12-14T09:12:37;13.40;;;6.80;;
26261;SDS011;13988;52.446;13.280;2023-12-14T09:15:03;12.65;;;5.75;;
26261;SDS011;13988;52.446;13.280;2023-12-14T09:17:29;11.02;;;7.05;;
26261;SDS011;13988;52.446;13.280;2023-12-14T09:19:58;11.27;;;5.65;;
26261;SDS011;13988;52.446;13.280;2023-12-14T09:22:25;11.18;;;5.78;;
26261;SDS011;13988;52.446;13.280;2023-12-14T09:24:51;10.55;;;6.18;;
26261;SDS011;13988;52.446;13.280;2023-12-14T09:27:16;12.45;;;7.10;;
26261;SDS011;13988;52.446;13.280;2023-12-14T09:29:42;11.13;;;5.47;;
26261;SDS011;13988;52.446;13.280;2023-12-14T09:32:08;11.57;;;6.35;;
26261;SDS011;13988;52.446;13.280;2023-12-14T09:34:35;11.07;;;6.85;;
26261;SDS011;13988;52.446;13.280;2023-12-14T09:37:01;13.93;;;6.72;;
26261;SDS011;13988;52.446;13.280;2023-12-14T09:39:26;14.35;;;6.43;;
26261;SDS011;13988;52.446;13.280;2023-12-14T09:41:53;9.57;;;6.97;;
26261;SDS011;13988;52.446;13.280;2023-12-14T09:44:30;11.70;;;5.75;;
26261;SDS011;13988;52.446;13.280;2023-12-14T09:46:59;10.10;;;6.15;;
26261;SDS011;13988;52.446;13.280;2023-12-14T09:49:27;9.95;;;5.35;;
26261;SDS011;13988;52.446;13.280;2023-12-14T09:51:55;9.45;;;5.40;;
26261;SDS011;13988;52.446;13.280;2023-12-14T09:54:24;12.65;;;5.65;;
26261;SDS011;13988;52.446;13.280;2023-12-14T09:56:51;9.88;;;5.60;;
26261;SDS011;13988;52.446;13.280;2023-12-14T09:59:17;10.52;;;6.15;;
26261;SDS011;13988;52.446;13.280;2023-12-14T10:01:43;11.95;;;5.60;;
26261;SDS011;13988;52.446;13.280;2023-12-14T10:04:10;15.60;;;6.93;;
26261;SDS011;13988;52.446;13.280;2023-12-14T10:06:41;13.60;;;6.78;;
26261;SDS011;13988;52.446;13.280;2023-12-14T10:09:07;13.13;;;7.15;;
26261;SDS011;13988;52.446;13.280;2023-12-14T10:11:40;10.07;;;6.25;;
26261;SDS011;13988;52.446;13.280;2023-12-14T10:16:48;12.32;;;6.78;;
26261;SDS011;13988;52.446;13.280;2023-12-14T10:19:16;10.82;;;6.15;;
26261;SDS011;13988;52.446;13.280;2023-12-14T10:21:46;16.75;;;7.00;;
26261;SDS011;13988;52.446;13.280;2023-12-14T10:24:13;12.43;;;6.15;;
26261;SDS011;13988;52.446;13.280;2023-12-14T10:26:39;13.88;;;6.47;;
26261;SDS011;13988;52.446;13.280;2023-12-14T10:29:05;11.68;;;6.97;;
26261;SDS011;13988;52.446;13.280;2023-12-14T10:31:31;9.70;;;6.75;;
26261;SDS011;13988;52.446;13.280;2023-12-14T10:34:02;12.50;;;6.63;;
26261;SDS011;13988;52.446;13.280;2023-12-14T10:36:28;13.70;;;6.43;;
26261;SDS011;13988;52.446;13.280;2023-12-14T10:38:56;11.35;;;6.40;;
26261;SDS011;13988;52.446;13.280;2023-12-14T10:41:22;12.88;;;7.40;;
26261;SDS011;13988;52.446;13.280;2023-12-14T10:43:50;13.93;;;6.80;;
26261;SDS011;13988;52.446;13.280;2023-12-14T10:46:18;12.18;;;7.18;;
26261;SDS011;13988;52.446;13.280;2023-12-14T10:48:45;10.32;;;6.47;;
26261;SDS011;13988;52.446;13.280;2023-12-14T10:51:14;9.38;;;5.50;;
26261;SDS011;13988;52.446;13.280;2023-12-14T10:53:42;10.82;;;5.93;;
26261;SDS011;13988;52.446;13.280;2023-12-14T10:56:12;10.23;;;5.13;;
26261;SDS011;13988;52.446;13.280;2023-12-14T10:58:51;8.52;;;5.05;;
26261;SDS011;13988;52.446;13.280;2023-12-14T11:01:19;12.88;;;6.07;;
26261;SDS011;13988;52.446;13.280;2023-12-14T11:03:46;8.40;;;5.20;;
26261;SDS011;13988;52.446;13.280;2023-12-14T11:08:53;14.65;;;6.75;;
26261;SDS011;13988;52.446;13.280;2023-12-14T11:11:22;12.05;;;5.35;;
26261;SDS011;13988;52.446;13.280;2023-12-14T11:13:49;10.32;;;5.95;;
26261;SDS011;13988;52.446;13.280;2023-12-14T11:16:20;14.02;;;6.35;;
26261;SDS011;13988;52.446;13.280;2023-12-14T11:18:47;8.93;;;5.30;;
26261;SDS011;13988;52.446;13.280;2023-12-14T11:21:17;11.05;;;6.63;;
26261;SDS011;13988;52.446;13.280;2023-12-14T11:23:47;10.65;;;6.43;;
26261;SDS011;13988;52.446;13.280;2023-12-14T11:26:20;8.85;;;5.00;;
26261;SDS011;13988;52.446;13.280;2023-12-14T11:28:49;11.98;;;5.93;;
26261;SDS011;13988;52.446;13.280;2023-12-14T11:31:15;11.80;;;6.57;;
26261;SDS011;13988;52.446;13.280;2023-12-14T11:33:41;9.85;;;5.80;;
26261;SDS011;13988;52.446;13.280;2023-12-14T11:36:10;12.68;;;5.40;;
26261;SDS011;13988;52.446;13.280;2023-12-14T11:38:36;8.52;;;5.13;;
26261;SDS011;13988;52.446;13.280;2023-12-14T11:41:02;9.05;;;4.50;;
26261;SDS011;13988;52.446;13.280;2023-12-14T11:43:28;8.13;;;5.10;;
26261;SDS011;13988;52.446;13.280;2023-12-14T11:45:54;9.45;;;5.28;;
26261;SDS011;13988;52.446;13.280;2023-12-14T11:48:23;9.70;;;5.50;;
26261;SDS011;13988;52.446;13.280;2023-12-14T11:50:49;10.05;;;5.82;;
26261;SDS011;13988;52.446;13.280;2023-12-14T11:53:15;12.95;;;5.22;;
26261;SDS011;13988;52.446;13.280;2023-12-14T11:55:41;12.25;;;6.50;;
26261;SDS011;13988;52.446;13.280;2023-12-14T11:58:08;10.40;;;6.18;;
26261;SDS011;13988;52.446;13.280;2023-12-14T12:00:36;10.40;;;5.65;;
26261;SDS011;13988;52.446;13.280;2023-12-14T12:08:08;11.60;;;6.78;;
26261;SDS011;13988;52.446;13.280;2023-12-14T12:10:34;9.57;;;5.55;;
26261;SDS011;13988;52.446;13.280;2023-12-14T12:13:02;11.38;;;6.38;;
26261;SDS011;13988;52.446;13.280;2023-12-14T12:15:30;11.55;;;5.80;;
26261;SDS011;13988;52.446;13.280;2023-12-14T12:18:11;12.60;;;6.88;;
26261;SDS011;13988;52.446;13.280;2023-12-14T12:20:38;14.57;;;5.70;;
26261;SDS011;13988;52.446;13.280;2023-12-14T12:23:04;10.55;;;5.95;;
26261;SDS011;13988;52.446;13.280;2023-12-14T12:25:30;8.68;;;5.53;;
26261;SDS011;13988;52.446;13.280;2023-12-14T12:27:57;13.32;;;6.80;;
26261;SDS011;13988;52.446;13.280;2023-12-14T12:30:23;13.27;;;6.15;;
26261;SDS011;13988;52.446;13.280;2023-12-14T12:32:49;9.10;;;5.93;;
26261;SDS011;13988;52.446;13.280;2023-12-14T12:35:19;9.32;;;6.35;;
26261;SDS011;13988;52.446;13.280;2023-12-14T12:37:46;13.38;;;6.57;;
26261;SDS011;13988;52.446;13.280;2023-12-14T12:40:12;13.30;;;6.80;;
26261;SDS011;13988;52.446;13.280;2023-12-14T12:42:40;12.10;;;6.57;;
26261;SDS011;13988;52.446;13.280;2023-12-14T12:45:06;14.35;;;5.57;;
26261;SDS011;13988;52.446;13.280;2023-12-14T12:47:32;10.70;;;6.25;;
26261;SDS011;13988;52.446;13.280;2023-12-14T12:49:58;16.30;;;6.28;;
26261;SDS011;13988;52.446;13.280;2023-12-14T12:52:23;10.75;;;6.80;;
26261;SDS011;13988;52.446;13.280;2023-12-14T12:54:49;9.88;;;5.82;;
26261;SDS011;13988;52.446;13.280;2023-12-14T12:57:15;11.82;;;6.53;;
26261;SDS011;13988;52.446;13.280;2023-12-14T12:59:40;10.43;;;6.00;;
26261;SDS011;13988;52.446;13.280;2023-12-14T13:02:06;13.75;;;7.15;;
26261;SDS011;13988;52.446;13.280;2023-12-14T13:04:31;11.82;;;6.68;;
26261;SDS011;13988;52.446;13.280;2023-12-14T13:06:57;7.95;;;4.95;;
26261;SDS011;13988;52.446;13.280;2023-12-14T13:09:23;9.85;;;5.82;;
26261;SDS011;13988;52.446;13.280;2023-12-14T13:11:49;10.38;;;5.28;;
26261;SDS011;13988;52.446;13.280;2023-12-14T13:14:15;10.63;;;5.97;;
26261;SDS011;13988;52.446;13.280;2023-12-14T13:16:41;10.05;;;6.90;;
26261;SDS011;13988;52.446;13.280;2023-12-14T13:19:08;14.70;;;6.18;;
26261;SDS011;13988;52.446;13.280;2023-12-14T13:21:34;11.15;;;6.63;;
26261;SDS011;13988;52.446;13.280;2023-12-14T13:24:00;13.70;;;7.03;;
26261;SDS011;13988;52.446;13.280;2023-12-14T13:26:26;11.43;;;5.35;;
26261;SDS011;13988;52.446;13.280;2023-12-14T13:28:52;8.30;;;5.15;;
26261;SDS011;13988;52.446;13.280;2023-12-14T13:31:18;11.05;;;5.95;;
26261;SDS011;13988;52.446;13.280;2023-12-14T13:33:45;13.38;;;6.35;;
26261;SDS011;13988;52.446;13.280;2023-12-14T13:36:11;10.75;;;6.25;;
26261;SDS011;13988;52.446;13.280;2023-12-14T13:38:37;13.23;;;7.38;;
26261;SDS011;13988;52.446;13.280;2023-12-14T13:41:02;12.90;;;6.43;;
26261;SDS011;13988;52.446;13.280;2023-12-14T13:43:28;10.35;;;6.40;;
26261;SDS011;13988;52.446;13.280;2023-12-14T13:45:54;9.23;;;5.80;;
26261;SDS011;13988;52.446;13.280;2023-12-14T13:48:23;10.90;;;6.00;;
26261;SDS011;13988;52.446;13.280;2023-12-14T13:50:49;8.77;;;5.13;;
26261;SDS011;13988;52.446;13.280;2023-12-14T13:53:15;10.43;;;5.60;;
26261;SDS011;13988;52.446;13.280;2023-12-14T13:55:41;12.15;;;7.03;;
26261;SDS011;13988;52.446;13.280;2023-12-14T13:58:06;13.32;;;6.93;;
26261;SDS011;13988;52.446;13.280;2023-12-14T14:00:32;11.93;;;6.85;;
26261;SDS011;13988;52.446;13.280;2023-12-14T14:02:59;12.05;;;7.45;;
26261;SDS011;13988;52.446;13.280;2023-12-14T14:05:25;12.00;;;6.95;;
26261;SDS011;13988;52.446;13.280;2023-12-14T14:07:51;13.35;;;7.80;;
26261;SDS011;13988;52.446;13.280;2023-12-14T14:10:18;14.27;;;7.70;;
26261;SDS011;13988;52.446;13.280;2023-12-14T14:12:45;13.68;;;7.35;;
26261;SDS011;13988;52.446;13.280;2023-12-14T14:15:11;17.65;;;7.70;;
26261;SDS011;13988;52.446;13.280;2023-12-14T14:17:37;11.13;;;6.97;;
26261;SDS011;13988;52.446;13.280;2023-12-14T14:20:02;12.77;;;6.57;;
26261;SDS011;13988;52.446;13.280;2023-12-14T14:22:29;13.85;;;7.40;;
26261;SDS011;13988;52.446;13.280;2023-12-14T14:24:55;11.95;;;7.20;;
26261;SDS011;13988;52.446;13.280;2023-12-14T14:27:21;12.50;;;6.70;;
26261;SDS011;13988;52.446;13.280;2023-12-14T14:29:47;11.75;;;7.43;;
26261;SDS011;13988;52.446;13.280;2023-12-14T14:32:14;12.05;;;6.45;;